sensor_id;sensor_type;location;lat;lon;timestamp;pressure;altitude;pressure_sealevel;temperature
1532;BMP280;759;53.170;8.210;2023-02-01T00:02:15;100416.09;;;6.22
1532;BMP280;759;53.170;8.210;2023-02-01T00:04:40;100423.66;;;6.24
1532;BMP280;759;53.170;8.210;2023-02-01T00:07:05;100422.94;;;6.27
1532;BMP280;759;53.170;8.210;2023-02-01T00:09:31;100411.97;;;6.29
1532;BMP280;759;53.170;8.210;2023-02-01T00:11:56;100412.22;;;6.20
1532;BMP280;759;53.170;8.210;2023-02-01T00:14:24;100411.53;;;6.23
1532;BMP280;759;53.170;8.210;2023-02-01T00:16:49;100406.22;;;6.23
1532;BMP280;759;53.170;8.210;2023-02-01T00:19:14;100398.25;;;6.23
1532;BMP280;759;53.170;8.210;2023-02-01T00:21:40;100385.75;;;6.27
1532;BMP280;759;53.170;8.210;2023-02-01T00:24:05;100390.66;;;6.25
1532;BMP280;759;53.170;8.210;2023-02-01T00:26:32;100391.78;;;6.24
1532;BMP280;759;53.170;8.210;2023-02-01T00:28:58;100396.38;;;6.27
1532;BMP280;759;53.170;8.210;2023-02-01T00:31:23;100400.56;;;6.28
1532;BMP280;759;53.170;8.210;2023-02-01T00:33:48;100392.59;;;6.28
1532;BMP280;759;53.170;8.210;2023-02-01T00:36:14;100384.63;;;6.28
1532;BMP280;759;53.170;8.210;2023-02-01T00:38:39;100384.22;;;6.26
1532;BMP280;759;53.170;8.210;2023-02-01T00:43:33;100395.59;;;6.27
1532;BMP280;759;53.170;8.210;2023-02-01T00:45:58;100375.84;;;6.24
1532;BMP280;759;53.170;8.210;2023-02-01T00:48:24;100377.69;;;6.20
1532;BMP280;759;53.170;8.210;2023-02-01T00:50:49;100369.66;;;6.13
1532;BMP280;759;53.170;8.210;2023-02-01T00:53:14;100374.22;;;6.16
1532;BMP280;759;53.170;8.210;2023-02-01T00:55:40;100375.03;;;6.20
1532;BMP280;759;53.170;8.210;2023-02-01T00:58:05;100379.94;;;6.18
1532;BMP280;759;53.170;8.210;2023-02-01T01:00:31;100367.47;;;6.22
1532;BMP280;759;53.170;8.210;2023-02-01T01:02:56;100361.34;;;6.18
1532;BMP280;759;53.170;8.210;2023-02-01T01:05:22;100362.16;;;6.18
1532;BMP280;759;53.170;8.210;2023-02-01T01:07:47;100366.66;;;6.18
1532;BMP280;759;53.170;8.210;2023-02-01T01:10:12;100365.97;;;6.21
1532;BMP280;759;53.170;8.210;2023-02-01T01:12:37;100364.44;;;6.23
1532;BMP280;759;53.170;8.210;2023-02-01T01:15:03;100362.50;;;6.17
1532;BMP280;759;53.170;8.210;2023-02-01T01:17:28;100355.28;;;6.17
1532;BMP280;759;53.170;8.210;2023-02-01T01:19:53;100352.97;;;6.16
1532;BMP280;759;53.170;8.210;2023-02-01T01:22:18;100356.84;;;6.18
1532;BMP280;759;53.170;8.210;2023-02-01T01:24:43;100346.59;;;6.20
1532;BMP280;759;53.170;8.210;2023-02-01T01:27:09;100348.88;;;6.18
1532;BMP280;759;53.170;8.210;2023-02-01T01:29:34;100337.84;;;6.20
1532;BMP280;759;53.170;8.210;2023-02-01T01:31:59;100339.41;;;6.21
1532;BMP280;759;53.170;8.210;2023-02-01T01:34:24;100347.38;;;6.24
1532;BMP280;759;53.170;8.210;2023-02-01T01:36:49;100334.50;;;6.23
1532;BMP280;759;53.170;8.210;2023-02-01T01:39:15;100328.38;;;6.19
1532;BMP280;759;53.170;8.210;2023-02-01T01:41:40;100334.50;;;6.23
1532;BMP280;759;53.170;8.210;2023-02-01T01:44:06;100323.53;;;6.28
1532;BMP280;759;53.170;8.210;2023-02-01T01:46:35;100319.69;;;6.25
1532;BMP280;759;53.170;8.210;2023-02-01T01:51:29;100307.19;;;6.26
1532;BMP280;759;53.170;8.210;2023-02-01T01:53:58;100307.59;;;6.28
1532;BMP280;759;53.170;8.210;2023-02-01T01:56:24;100297.72;;;6.29
1532;BMP280;759;53.170;8.210;2023-02-01T01:58:49;100300.00;;;6.30
1532;BMP280;759;53.170;8.210;2023-02-01T02:01:15;100285.59;;;6.31
1532;BMP280;759;53.170;8.210;2023-02-01T02:03:42;100296.22;;;6.31
1532;BMP280;759;53.170;8.210;2023-02-01T02:06:14;100294.34;;;6.32
1532;BMP280;759;53.170;8.210;2023-02-01T02:08:40;100282.94;;;6.31
1532;BMP280;759;53.170;8.210;2023-02-01T02:11:05;100285.19;;;6.29
1532;BMP280;759;53.170;8.210;2023-02-01T02:13:34;100277.22;;;6.29
1532;BMP280;759;53.170;8.210;2023-02-01T02:23:41;100266.53;;;6.22
1532;BMP280;759;53.170;8.210;2023-02-01T02:36:43;100241.50;;;6.23
1532;BMP280;759;53.170;8.210;2023-02-01T02:39:28;100235.06;;;6.24
1532;BMP280;759;53.170;8.210;2023-02-01T02:47:42;100227.09;;;6.24
1532;BMP280;759;53.170;8.210;2023-02-01T02:53:16;100224.72;;;6.15
1532;BMP280;759;53.170;8.210;2023-02-01T02:55:57;100214.84;;;6.16
1532;BMP280;759;53.170;8.210;2023-02-01T02:58:42;100213.34;;;6.15
1532;BMP280;759;53.170;8.210;2023-02-01T03:01:27;100207.66;;;6.16
1532;BMP280;759;53.170;8.210;2023-02-01T03:04:11;100198.06;;;6.04
1532;BMP280;759;53.170;8.210;2023-02-01T03:06:42;100204.78;;;5.91
1532;BMP280;759;53.170;8.210;2023-02-01T03:09:09;100202.03;;;5.84
1532;BMP280;759;53.170;8.210;2023-02-01T03:11:36;100187.19;;;5.76
1532;BMP280;759;53.170;8.210;2023-02-01T03:14:21;100192.78;;;5.67
1532;BMP280;759;53.170;8.210;2023-02-01T03:16:49;100178.69;;;5.59
1532;BMP280;759;53.170;8.210;2023-02-01T03:19:21;100172.53;;;5.52
1532;BMP280;759;53.170;8.210;2023-02-01T03:21:50;100178.59;;;5.52
1532;BMP280;759;53.170;8.210;2023-02-01T03:26:55;100156.50;;;5.41
1532;BMP280;759;53.170;8.210;2023-02-01T03:29:24;100151.19;;;5.41
1532;BMP280;759;53.170;8.210;2023-02-01T03:31:52;100140.28;;;5.46
1532;BMP280;759;53.170;8.210;2023-02-01T03:34:18;100148.13;;;5.39
1532;BMP280;759;53.170;8.210;2023-02-01T03:36:46;100160.66;;;5.42
1532;BMP280;759;53.170;8.210;2023-02-01T03:39:15;100132.22;;;5.39
1532;BMP280;759;53.170;8.210;2023-02-01T03:44:14;100127.53;;;5.29
1532;BMP280;759;53.170;8.210;2023-02-01T03:46:54;100100.97;;;5.21
1532;BMP280;759;53.170;8.210;2023-02-01T03:49:27;100082.00;;;5.23
1532;BMP280;759;53.170;8.210;2023-02-01T03:51:54;100070.25;;;5.20
1532;BMP280;759;53.170;8.210;2023-02-01T03:54:19;100068.28;;;5.17
1532;BMP280;759;53.170;8.210;2023-02-01T03:56:46;100066.47;;;5.21
1532;BMP280;759;53.170;8.210;2023-02-01T03:59:12;100061.56;;;5.24
1532;BMP280;759;53.170;8.210;2023-02-01T04:01:38;100053.97;;;5.22
1532;BMP280;759;53.170;8.210;2023-02-01T04:04:03;100065.44;;;5.30
1532;BMP280;759;53.170;8.210;2023-02-01T04:06:28;100054.81;;;5.30
1532;BMP280;759;53.170;8.210;2023-02-01T04:08:53;100056.34;;;5.34
1532;BMP280;759;53.170;8.210;2023-02-01T04:11:18;100015.63;;;5.12
1532;BMP280;759;53.170;8.210;2023-02-01T04:13:44;100034.38;;;5.34
1532;BMP280;759;53.170;8.210;2023-02-01T04:16:09;100030.94;;;5.30
1532;BMP280;759;53.170;8.210;2023-02-01T04:18:34;100033.66;;;5.37
1532;BMP280;759;53.170;8.210;2023-02-01T04:21:00;100052.22;;;5.37
1532;BMP280;759;53.170;8.210;2023-02-01T04:23:26;100045.03;;;5.37
1532;BMP280;759;53.170;8.210;2023-02-01T04:25:51;100040.16;;;5.43
1532;BMP280;759;53.170;8.210;2023-02-01T04:28:16;100041.28;;;5.42
1532;BMP280;759;53.170;8.210;2023-02-01T04:30:41;100051.94;;;5.49
1532;BMP280;759;53.170;8.210;2023-02-01T04:33:07;100033.00;;;5.51
1532;BMP280;759;53.170;8.210;2023-02-01T04:35:32;100037.22;;;5.52
1532;BMP280;759;53.170;8.210;2023-02-01T04:37:58;100038.31;;;5.51
1532;BMP280;759;53.170;8.210;2023-02-01T04:40:23;100020.16;;;5.53
1532;BMP280;759;53.170;8.210;2023-02-01T04:42:48;100031.19;;;5.58
1532;BMP280;759;53.170;8.210;2023-02-01T04:45:13;100028.53;;;5.58
1532;BMP280;759;53.170;8.210;2023-02-01T04:47:38;100023.94;;;5.55
1532;BMP280;759;53.170;8.210;2023-02-01T04:50:04;100028.53;;;5.58
1532;BMP280;759;53.170;8.210;2023-02-01T04:52:35;100043.34;;;5.59
1532;BMP280;759;53.170;8.210;2023-02-01T04:55:00;100045.19;;;5.55
1532;BMP280;759;53.170;8.210;2023-02-01T04:57:27;100020.94;;;5.57
1532;BMP280;759;53.170;8.210;2023-02-01T04:59:52;100033.81;;;5.55
1532;BMP280;759;53.170;8.210;2023-02-01T05:02:17;100037.63;;;5.57
1532;BMP280;759;53.170;8.210;2023-02-01T05:04:42;100058.84;;;5.57
1532;BMP280;759;53.170;8.210;2023-02-01T05:07:08;100039.16;;;5.58
1532;BMP280;759;53.170;8.210;2023-02-01T05:09:33;100052.03;;;5.56
1532;BMP280;759;53.170;8.210;2023-02-01T05:11:58;100054.69;;;5.56
1532;BMP280;759;53.170;8.210;2023-02-01T05:14:42;100053.13;;;5.52
1532;BMP280;759;53.170;8.210;2023-02-01T05:17:07;100052.34;;;5.51
1532;BMP280;759;53.170;8.210;2023-02-01T05:19:32;100037.97;;;5.52
1532;BMP280;759;53.170;8.210;2023-02-01T05:21:57;100037.56;;;5.50
1532;BMP280;759;53.170;8.210;2023-02-01T05:24:23;100048.91;;;5.47
1532;BMP280;759;53.170;8.210;2023-02-01T05:26:48;100037.50;;;5.43
1532;BMP280;759;53.170;8.210;2023-02-01T05:29:13;100029.94;;;5.45
1532;BMP280;759;53.170;8.210;2023-02-01T05:31:39;100023.94;;;5.48
1532;BMP280;759;53.170;8.210;2023-02-01T05:34:04;100011.78;;;5.47
1532;BMP280;759;53.170;8.210;2023-02-01T05:36:30;100012.13;;;5.46
1532;BMP280;759;53.170;8.210;2023-02-01T05:38:55;100014.81;;;5.49
1532;BMP280;759;53.170;8.210;2023-02-01T05:41:20;100007.19;;;5.44
1532;BMP280;759;53.170;8.210;2023-02-01T05:43:48;100003.44;;;5.49
1532;BMP280;759;53.170;8.210;2023-02-01T05:46:14;100008.78;;;5.52
1532;BMP280;759;53.170;8.210;2023-02-01T05:48:39;100015.97;;;5.52
1532;BMP280;759;53.170;8.210;2023-02-01T05:51:05;100007.63;;;5.53
1532;BMP280;759;53.170;8.210;2023-02-01T05:53:30;100014.88;;;5.56
1532;BMP280;759;53.170;8.210;2023-02-01T05:55:55;100028.94;;;5.60
1532;BMP280;759;53.170;8.210;2023-02-01T05:58:21;100043.41;;;5.70
1532;BMP280;759;53.170;8.210;2023-02-01T06:00:46;100054.47;;;5.76
1532;BMP280;759;53.170;8.210;2023-02-01T06:03:11;100045.38;;;5.77
1532;BMP280;759;53.170;8.210;2023-02-01T06:05:36;100065.13;;;5.83
1532;BMP280;759;53.170;8.210;2023-02-01T06:08:02;100053.75;;;5.79
1532;BMP280;759;53.170;8.210;2023-02-01T06:10:27;100066.63;;;5.77
1532;BMP280;759;53.170;8.210;2023-02-01T06:12:52;100051.03;;;5.72
1532;BMP280;759;53.170;8.210;2023-02-01T06:15:20;100052.84;;;5.64
1532;BMP280;759;53.170;8.210;2023-02-01T06:17:47;100052.44;;;5.58
1532;BMP280;759;53.170;8.210;2023-02-01T06:20:13;100066.81;;;5.57
1532;BMP280;759;53.170;8.210;2023-02-01T06:22:38;100069.88;;;5.59
1532;BMP280;759;53.170;8.210;2023-02-01T06:25:05;100086.22;;;5.61
1532;BMP280;759;53.170;8.210;2023-02-01T06:27:30;100087.72;;;5.62
1532;BMP280;759;53.170;8.210;2023-02-01T06:29:56;100089.63;;;5.66
1532;BMP280;759;53.170;8.210;2023-02-01T06:32:25;100079.81;;;5.70
1532;BMP280;759;53.170;8.210;2023-02-01T06:34:51;100076.03;;;5.71
1532;BMP280;759;53.170;8.210;2023-02-01T06:37:17;100074.94;;;5.75
1532;BMP280;759;53.170;8.210;2023-02-01T06:39:42;100086.38;;;5.83
1532;BMP280;759;53.170;8.210;2023-02-01T06:42:08;100064.81;;;5.88
1532;BMP280;759;53.170;8.210;2023-02-01T06:44:33;100072.44;;;5.93
1532;BMP280;759;53.170;8.210;2023-02-01T06:46:58;100077.00;;;5.96
1532;BMP280;759;53.170;8.210;2023-02-01T06:49:23;100088.84;;;6.10
1532;BMP280;759;53.170;8.210;2023-02-01T06:51:48;100086.56;;;6.08
1532;BMP280;759;53.170;8.210;2023-02-01T06:54:14;100110.78;;;6.03
1532;BMP280;759;53.170;8.210;2023-02-01T06:56:39;100088.84;;;6.06
1532;BMP280;759;53.170;8.210;2023-02-01T06:59:04;100119.19;;;6.09
1532;BMP280;759;53.170;8.210;2023-02-01T07:01:30;100096.81;;;6.10
1532;BMP280;759;53.170;8.210;2023-02-01T07:03:55;100094.88;;;6.03
1532;BMP280;759;53.170;8.210;2023-02-01T07:06:20;100110.41;;;5.97
1532;BMP280;759;53.170;8.210;2023-02-01T07:08:46;100117.56;;;5.97
1532;BMP280;759;53.170;8.210;2023-02-01T07:11:12;100116.81;;;5.96
1532;BMP280;759;53.170;8.210;2023-02-01T07:13:37;100105.81;;;5.94
1532;BMP280;759;53.170;8.210;2023-02-01T07:16:03;100098.50;;;5.84
1532;BMP280;759;53.170;8.210;2023-02-01T07:18:29;100106.47;;;5.84
1532;BMP280;759;53.170;8.210;2023-02-01T07:20:55;100108.31;;;5.80
1532;BMP280;759;53.170;8.210;2023-02-01T07:23:20;100123.53;;;5.79
1532;BMP280;759;53.170;8.210;2023-02-01T07:25:46;100112.91;;;5.83
1532;BMP280;759;53.170;8.210;2023-02-01T07:28:19;100112.56;;;5.85
1532;BMP280;759;53.170;8.210;2023-02-01T07:30:45;100104.56;;;5.81
1532;BMP280;759;53.170;8.210;2023-02-01T07:33:15;100104.91;;;5.76
1532;BMP280;759;53.170;8.210;2023-02-01T07:35:40;100095.34;;;5.68
1532;BMP280;759;53.170;8.210;2023-02-01T07:38:06;100096.44;;;5.67
1532;BMP280;759;53.170;8.210;2023-02-01T07:40:31;100101.75;;;5.67
1532;BMP280;759;53.170;8.210;2023-02-01T07:42:56;100103.69;;;5.70
1532;BMP280;759;53.170;8.210;2023-02-01T07:45:22;100111.41;;;5.78
1532;BMP280;759;53.170;8.210;2023-02-01T07:47:47;100117.47;;;5.79
1532;BMP280;759;53.170;8.210;2023-02-01T07:50:13;100124.69;;;5.86
1532;BMP280;759;53.170;8.210;2023-02-01T07:52:38;100138.75;;;5.86
1532;BMP280;759;53.170;8.210;2023-02-01T07:55:05;100131.19;;;5.88
1532;BMP280;759;53.170;8.210;2023-02-01T07:57:30;100140.34;;;5.94
1532;BMP280;759;53.170;8.210;2023-02-01T07:59:56;100131.22;;;5.95
1532;BMP280;759;53.170;8.210;2023-02-01T08:02:41;100135.09;;;6.01
1532;BMP280;759;53.170;8.210;2023-02-01T08:05:06;100153.31;;;6.07
1532;BMP280;759;53.170;8.210;2023-02-01T08:07:32;100145.81;;;6.16
1532;BMP280;759;53.170;8.210;2023-02-01T08:09:58;100160.63;;;6.17
1532;BMP280;759;53.170;8.210;2023-02-01T08:12:23;100159.88;;;6.20
1532;BMP280;759;53.170;8.210;2023-02-01T08:14:48;100162.59;;;6.27
1532;BMP280;759;53.170;8.210;2023-02-01T08:17:13;100174.41;;;6.33
1532;BMP280;759;53.170;8.210;2023-02-01T08:19:39;100169.53;;;6.42
1532;BMP280;759;53.170;8.210;2023-02-01T08:22:04;100173.31;;;6.41
1532;BMP280;759;53.170;8.210;2023-02-01T08:24:32;100177.09;;;6.40
1532;BMP280;759;53.170;8.210;2023-02-01T08:26:57;100191.53;;;6.39
1532;BMP280;759;53.170;8.210;2023-02-01T08:29:22;100170.28;;;6.39
1532;BMP280;759;53.170;8.210;2023-02-01T08:31:48;100163.06;;;6.36
1532;BMP280;759;53.170;8.210;2023-02-01T08:34:13;100164.56;;;6.37
1532;BMP280;759;53.170;8.210;2023-02-01T08:36:38;100168.38;;;6.36
1532;BMP280;759;53.170;8.210;2023-02-01T08:39:03;100163.41;;;6.38
1532;BMP280;759;53.170;8.210;2023-02-01T08:41:33;100162.69;;;6.41
1532;BMP280;759;53.170;8.210;2023-02-01T08:43:59;100169.53;;;6.42
1532;BMP280;759;53.170;8.210;2023-02-01T08:46:24;100163.09;;;6.43
1532;BMP280;759;53.170;8.210;2023-02-01T08:48:49;100172.56;;;6.44
1532;BMP280;759;53.170;8.210;2023-02-01T08:51:16;100174.91;;;6.50
1532;BMP280;759;53.170;8.210;2023-02-01T08:53:41;100165.03;;;6.54
1532;BMP280;759;53.170;8.210;2023-02-01T08:56:07;100181.38;;;6.56
1532;BMP280;759;53.170;8.210;2023-02-01T08:58:33;100178.41;;;6.61
1532;BMP280;759;53.170;8.210;2023-02-01T09:01:08;100167.00;;;6.60
1532;BMP280;759;53.170;8.210;2023-02-01T09:03:34;100162.09;;;6.62
1532;BMP280;759;53.170;8.210;2023-02-01T09:06:00;100174.59;;;6.62
1532;BMP280;759;53.170;8.210;2023-02-01T09:11:16;100178.03;;;6.66
1532;BMP280;759;53.170;8.210;2023-02-01T09:13:41;100161.31;;;6.62
1532;BMP280;759;53.170;8.210;2023-02-01T09:16:07;100159.81;;;6.68
1532;BMP280;759;53.170;8.210;2023-02-01T09:18:32;100156.03;;;6.69
1532;BMP280;759;53.170;8.210;2023-02-01T09:20:58;100160.97;;;6.71
1532;BMP280;759;53.170;8.210;2023-02-01T09:23:23;100171.25;;;6.72
1532;BMP280;759;53.170;8.210;2023-02-01T09:25:48;100162.53;;;6.75
1532;BMP280;759;53.170;8.210;2023-02-01T09:28:16;100163.69;;;6.81
1532;BMP280;759;53.170;8.210;2023-02-01T09:30:41;100151.13;;;6.78
1532;BMP280;759;53.170;8.210;2023-02-01T09:33:06;100149.25;;;6.82
1532;BMP280;759;53.170;8.210;2023-02-01T09:35:31;100138.63;;;6.82
1532;BMP280;759;53.170;8.210;2023-02-01T09:37:57;100169.00;;;6.81
1532;BMP280;759;53.170;8.210;2023-02-01T09:40:22;100145.47;;;6.83
1532;BMP280;759;53.170;8.210;2023-02-01T09:45:31;100150.00;;;6.79
1532;BMP280;759;53.170;8.210;2023-02-01T09:48:16;100145.44;;;6.80
1532;BMP280;759;53.170;8.210;2023-02-01T09:50:44;100141.25;;;6.75
1532;BMP280;759;53.170;8.210;2023-02-01T09:53:12;100153.06;;;6.81
1532;BMP280;759;53.170;8.210;2023-02-01T09:55:45;100145.81;;;6.78
1532;BMP280;759;53.170;8.210;2023-02-01T10:00:39;100137.84;;;6.78
1532;BMP280;759;53.170;8.210;2023-02-01T10:03:09;100132.13;;;6.73
1532;BMP280;759;53.170;8.210;2023-02-01T10:08:04;100120.31;;;6.63
1532;BMP280;759;53.170;8.210;2023-02-01T10:10:35;100099.00;;;6.56
1532;BMP280;759;53.170;8.210;2023-02-01T10:13:16;100083.72;;;6.38
1532;BMP280;759;53.170;8.210;2023-02-01T10:15:50;100073.09;;;6.42
1532;BMP280;759;53.170;8.210;2023-02-01T10:18:23;100075.38;;;6.36
1532;BMP280;759;53.170;8.210;2023-02-01T10:26:25;100052.53;;;6.28
1532;BMP280;759;53.170;8.210;2023-02-01T10:28:56;100060.94;;;6.34
1532;BMP280;759;53.170;8.210;2023-02-01T10:31:23;100041.56;;;6.33
1532;BMP280;759;53.170;8.210;2023-02-01T10:33:50;100035.81;;;6.24
1532;BMP280;759;53.170;8.210;2023-02-01T10:36:19;100025.59;;;6.26
1532;BMP280;759;53.170;8.210;2023-02-01T10:38:46;100014.56;;;6.24
1532;BMP280;759;53.170;8.210;2023-02-01T10:41:12;100021.06;;;6.30
1532;BMP280;759;53.170;8.210;2023-02-01T10:43:38;99997.81;;;6.13
1532;BMP280;759;53.170;8.210;2023-02-01T10:46:04;100024.44;;;6.27
1532;BMP280;759;53.170;8.210;2023-02-01T10:48:29;99995.59;;;6.25
1532;BMP280;759;53.170;8.210;2023-02-01T10:51:00;100000.09;;;6.14
1532;BMP280;759;53.170;8.210;2023-02-01T10:53:26;99995.53;;;6.11
1532;BMP280;759;53.170;8.210;2023-02-01T10:55:55;99986.03;;;6.07
1532;BMP280;759;53.170;8.210;2023-02-01T10:58:26;99998.91;;;6.04
1532;BMP280;759;53.170;8.210;2023-02-01T11:03:32;99958.34;;;6.08
1532;BMP280;759;53.170;8.210;2023-02-01T11:05:59;99934.44;;;6.11
1532;BMP280;759;53.170;8.210;2023-02-01T11:08:25;99924.63;;;6.19
1532;BMP280;759;53.170;8.210;2023-02-01T11:11:00;99927.25;;;6.15
1532;BMP280;759;53.170;8.210;2023-02-01T11:13:34;99943.88;;;5.94
1532;BMP280;759;53.170;8.210;2023-02-01T11:16:02;99908.88;;;5.81
1532;BMP280;759;53.170;8.210;2023-02-01T11:18:29;99920.16;;;5.60
1532;BMP280;759;53.170;8.210;2023-02-01T11:20:54;99907.59;;;5.57
1532;BMP280;759;53.170;8.210;2023-02-01T11:23:24;99903.75;;;5.48
1532;BMP280;759;53.170;8.210;2023-02-01T11:25:51;99874.50;;;5.37
1532;BMP280;759;53.170;8.210;2023-02-01T11:28:16;99849.53;;;5.41
1532;BMP280;759;53.170;8.210;2023-02-01T11:30:42;99843.13;;;5.46
1532;BMP280;759;53.170;8.210;2023-02-01T11:33:12;99841.25;;;5.47
1532;BMP280;759;53.170;8.210;2023-02-01T11:35:38;99827.59;;;5.48
1532;BMP280;759;53.170;8.210;2023-02-01T11:38:11;99820.78;;;5.54
1532;BMP280;759;53.170;8.210;2023-02-01T11:40:38;99826.50;;;5.56
1532;BMP280;759;53.170;8.210;2023-02-01T11:45:31;99775.34;;;5.59
1532;BMP280;759;53.170;8.210;2023-02-01T11:47:59;99763.22;;;5.58
1532;BMP280;759;53.170;8.210;2023-02-01T11:50:28;99749.22;;;5.61
1532;BMP280;759;53.170;8.210;2023-02-01T11:52:59;99767.78;;;5.61
1532;BMP280;759;53.170;8.210;2023-02-01T11:58:06;99777.59;;;5.57
1532;BMP280;759;53.170;8.210;2023-02-01T12:00:43;99894.16;;;5.32
1532;BMP280;759;53.170;8.210;2023-02-01T12:03:48;99913.28;;;4.67
1532;BMP280;759;53.170;8.210;2023-02-01T12:06:17;99915.13;;;4.29
1532;BMP280;759;53.170;8.210;2023-02-01T12:08:54;99908.00;;;4.03
1532;BMP280;759;53.170;8.210;2023-02-01T12:11:36;99912.44;;;3.95
1532;BMP280;759;53.170;8.210;2023-02-01T12:16:39;99939.50;;;3.85
1532;BMP280;759;53.170;8.210;2023-02-01T12:21:40;99954.25;;;3.86
1532;BMP280;759;53.170;8.210;2023-02-01T12:46:45;99959.75;;;4.57
1532;BMP280;759;53.170;8.210;2023-02-01T12:49:14;99956.38;;;4.60
1532;BMP280;759;53.170;8.210;2023-02-01T12:51:41;99959.38;;;4.58
1532;BMP280;759;53.170;8.210;2023-02-01T12:54:12;99966.97;;;4.60
1532;BMP280;759;53.170;8.210;2023-02-01T12:56:41;99964.66;;;4.55
1532;BMP280;759;53.170;8.210;2023-02-01T12:59:16;99966.16;;;4.56
1532;BMP280;759;53.170;8.210;2023-02-01T13:01:45;99946.50;;;4.57
1532;BMP280;759;53.170;8.210;2023-02-01T13:06:38;99943.47;;;4.55
1532;BMP280;759;53.170;8.210;2023-02-01T13:14:02;99964.22;;;4.87
1532;BMP280;759;53.170;8.210;2023-02-01T13:21:36;99976.91;;;5.49
1532;BMP280;759;53.170;8.210;2023-02-01T13:24:04;99982.72;;;5.69
1532;BMP280;759;53.170;8.210;2023-02-01T13:26:29;99973.97;;;5.65
1532;BMP280;759;53.170;8.210;2023-02-01T13:29:04;99989.44;;;5.48
1532;BMP280;759;53.170;8.210;2023-02-01T13:36:54;99991.53;;;5.80
1532;BMP280;759;53.170;8.210;2023-02-01T13:42:02;99980.13;;;5.72
1532;BMP280;759;53.170;8.210;2023-02-01T13:44:29;99981.56;;;5.66
1532;BMP280;759;53.170;8.210;2023-02-01T13:46:56;99983.88;;;5.68
1532;BMP280;759;53.170;8.210;2023-02-01T13:49:23;99983.97;;;5.78
1532;BMP280;759;53.170;8.210;2023-02-01T13:51:51;99989.25;;;5.82
1532;BMP280;759;53.170;8.210;2023-02-01T13:54:33;99982.50;;;5.88
1532;BMP280;759;53.170;8.210;2023-02-01T13:56:59;99990.16;;;6.00
1532;BMP280;759;53.170;8.210;2023-02-01T14:04:49;100004.34;;;6.26
1532;BMP280;759;53.170;8.210;2023-02-01T14:07:17;99999.47;;;6.42
1532;BMP280;759;53.170;8.210;2023-02-01T14:09:42;100008.59;;;6.49
1532;BMP280;759;53.170;8.210;2023-02-01T14:14:52;100021.66;;;6.86
1532;BMP280;759;53.170;8.210;2023-02-01T14:17:37;100015.13;;;6.69
1532;BMP280;759;53.170;8.210;2023-02-01T14:20:45;100021.56;;;6.61
1532;BMP280;759;53.170;8.210;2023-02-01T14:22:51;100023.09;;;6.58
1532;BMP280;759;53.170;8.210;2023-02-01T14:25:24;100026.53;;;6.66
1532;BMP280;759;53.170;8.210;2023-02-01T14:30:53;100039.16;;;6.87
1532;BMP280;759;53.170;8.210;2023-02-01T14:33:23;100041.41;;;6.96
1532;BMP280;759;53.170;8.210;2023-02-01T14:36:02;100063.09;;;6.98
1532;BMP280;759;53.170;8.210;2023-02-01T14:38:29;100038.44;;;7.22
1532;BMP280;759;53.170;8.210;2023-02-01T14:41:10;100052.13;;;7.32
1532;BMP280;759;53.170;8.210;2023-02-01T14:43:59;100061.25;;;7.45
1532;BMP280;759;53.170;8.210;2023-02-01T14:49:20;100075.34;;;7.60
1532;BMP280;759;53.170;8.210;2023-02-01T14:51:45;100089.41;;;7.60
1532;BMP280;759;53.170;8.210;2023-02-01T14:54:11;100099.28;;;7.63
1532;BMP280;759;53.170;8.210;2023-02-01T14:56:37;100093.19;;;7.52
1532;BMP280;759;53.170;8.210;2023-02-01T14:59:07;100112.22;;;7.47
1532;BMP280;759;53.170;8.210;2023-02-01T15:01:35;100090.16;;;7.43
1532;BMP280;759;53.170;8.210;2023-02-01T15:04:02;100096.59;;;7.31
1532;BMP280;759;53.170;8.210;2023-02-01T15:08:58;100094.69;;;7.24
1532;BMP280;759;53.170;8.210;2023-02-01T15:11:25;100094.69;;;7.24
1532;BMP280;759;53.170;8.210;2023-02-01T15:13:51;100091.25;;;7.20
1532;BMP280;759;53.170;8.210;2023-02-01T15:16:19;100101.88;;;7.13
1532;BMP280;759;53.170;8.210;2023-02-01T15:18:44;100087.47;;;7.14
1532;BMP280;759;53.170;8.210;2023-02-01T15:21:27;100101.13;;;7.16
1532;BMP280;759;53.170;8.210;2023-02-01T15:24:09;100098.47;;;7.20
1532;BMP280;759;53.170;8.210;2023-02-01T15:26:34;100119.41;;;7.28
1532;BMP280;759;53.170;8.210;2023-02-01T15:29:00;100100.03;;;7.32
1532;BMP280;759;53.170;8.210;2023-02-01T15:31:36;100108.38;;;7.30
1532;BMP280;759;53.170;8.210;2023-02-01T15:34:01;100106.09;;;7.32
1532;BMP280;759;53.170;8.210;2023-02-01T15:36:27;100123.63;;;7.37
1532;BMP280;759;53.170;8.210;2023-02-01T15:41:37;100130.06;;;7.25
1532;BMP280;759;53.170;8.210;2023-02-01T15:44:12;100112.94;;;7.22
1532;BMP280;759;53.170;8.210;2023-02-01T15:46:41;100131.16;;;7.20
1532;BMP280;759;53.170;8.210;2023-02-01T15:51:43;100141.13;;;5.98
1532;BMP280;759;53.170;8.210;2023-02-01T15:54:13;100120.00;;;5.31
1532;BMP280;759;53.170;8.210;2023-02-01T15:56:44;100108.63;;;5.00
1532;BMP280;759;53.170;8.210;2023-02-01T15:59:16;100113.78;;;4.86
1532;BMP280;759;53.170;8.210;2023-02-01T16:01:42;100113.38;;;4.84
1532;BMP280;759;53.170;8.210;2023-02-01T16:04:19;100133.72;;;4.76
1532;BMP280;759;53.170;8.210;2023-02-01T16:06:49;100143.63;;;4.83
1532;BMP280;759;53.170;8.210;2023-02-01T16:09:16;100102.78;;;4.84
1532;BMP280;759;53.170;8.210;2023-02-01T16:12:03;100113.28;;;4.76
1532;BMP280;759;53.170;8.210;2023-02-01T16:14:27;100138.44;;;4.90
1532;BMP280;759;53.170;8.210;2023-02-01T16:16:53;100134.66;;;4.91
1532;BMP280;759;53.170;8.210;2023-02-01T16:19:19;100133.91;;;4.90
1532;BMP280;759;53.170;8.210;2023-02-01T16:21:44;100128.59;;;4.90
1532;BMP280;759;53.170;8.210;2023-02-01T16:24:10;100113.31;;;4.80
1532;BMP280;759;53.170;8.210;2023-02-01T16:26:35;100116.34;;;4.78
1532;BMP280;759;53.170;8.210;2023-02-01T16:29:02;100105.69;;;4.75
1532;BMP280;759;53.170;8.210;2023-02-01T16:31:31;100091.69;;;4.74
1532;BMP280;759;53.170;8.210;2023-02-01T16:33:57;100104.63;;;4.79
1532;BMP280;759;53.170;8.210;2023-02-01T16:36:22;100095.75;;;4.95
1532;BMP280;759;53.170;8.210;2023-02-01T16:38:47;100109.94;;;5.13
1532;BMP280;759;53.170;8.210;2023-02-01T16:41:15;100114.63;;;5.24
1532;BMP280;759;53.170;8.210;2023-02-01T16:43:40;100118.63;;;5.44
1532;BMP280;759;53.170;8.210;2023-02-01T16:46:08;100127.00;;;5.50
1532;BMP280;759;53.170;8.210;2023-02-01T16:48:37;100129.38;;;5.58
1532;BMP280;759;53.170;8.210;2023-02-01T16:51:12;100145.00;;;5.64
1532;BMP280;759;53.170;8.210;2023-02-01T16:53:38;100154.13;;;5.70
1532;BMP280;759;53.170;8.210;2023-02-01T16:56:17;100156.47;;;5.75
1532;BMP280;759;53.170;8.210;2023-02-01T16:58:43;100162.81;;;5.67
1532;BMP280;759;53.170;8.210;2023-02-01T17:01:11;100158.28;;;5.67
1532;BMP280;759;53.170;8.210;2023-02-01T17:03:37;100161.28;;;5.66
1532;BMP280;759;53.170;8.210;2023-02-01T17:06:03;100162.19;;;5.77